Latest Weather Observations for Frankston

IDV60901

Issued at 5:21 am EDT Wednesday 13 November 2019 (issued every 10 minutes, with the page automatically refreshed every 10 minutes)

About weather observations | Map of Melbourne area stations | Latest observations for Melbourne area | Other Formats
Station Details ID: 086371 Name: FRANKSTON AWS Lat: -38.15 Lon: 145.12 Height: 6.0 m
Data from the previous 72 hours. | See also: Recent months at Frankston
Date/Time
EDT
Temp
°C
App
Temp
°C
Dew
Point
°C
Rel
Hum
%
Delta-T
°C
Wind Press
QNH
hPa
Press
MSL
hPa
Rain since
9am
mm
Dir  Spd
km/h
Gust
km/h
Spd
kts
Gust
kts
13/05:00am - - - - - WNW 35 46 19 25 - - -
13/04:30am - - - - - WNW 37 46 20 25 - - -
13/04:00am - - - - - WNW 35 43 19 23 - - -
13/03:30am - - - - - W 37 46 20 25 - - -
13/03:00am - - - - - WNW 41 48 22 26 - - -
13/02:30am - - - - - WNW 39 48 21 26 - - -
13/02:00am - - - - - WNW 39 48 21 26 - - -
13/01:30am - - - - - W 41 50 22 27 - - -
13/01:00am - - - - - W 44 56 24 30 - - -
13/12:30am - - - - - W 39 46 21 25 - - -
13/12:21am - - - - - W 37 44 20 24 - - -
13/12:06am - - - - - WSW 43 61 23 33 - - -
13/12:00am - - - - - W 50 61 27 33 - - -
 
Date/Time
EDT
Temp
°C
App
Temp
°C
Dew
Point
°C
Rel
Hum
%
Delta-T
°C
Wind Press
QNH
hPa
Press
MSL
hPa
Rain since
9am
mm
Dir  Spd
km/h
Gust
km/h
Spd
kts
Gust
kts
12/11:30pm - - - - - WNW 41 50 22 27 - - -
12/11:00pm - - - - - WNW 39 46 21 25 - - -
12/10:30pm - - - - - WNW 41 50 22 27 - - -
12/10:00pm - - - - - W 41 57 22 31 - - -
12/09:30pm - - - - - W 46 59 25 32 - - -
12/09:00pm - - - - - W 44 57 24 31 - - -
12/08:30pm - - - - - W 46 56 25 30 - - -
12/08:13pm - - - - - W 43 69 23 37 - - -
12/08:00pm - - - - - WNW 43 54 23 29 - - -
12/07:30pm - - - - - W 43 52 23 28 - - -
12/07:00pm - - - - - W 50 61 27 33 - - -
12/06:40pm - - - - - W 39 50 21 27 - - -
12/06:30pm - - - - - WSW 52 80 28 43 - - -
12/06:27pm - - - - - WSW 61 80 33 43 - - -
12/06:19pm - - - - - W 48 72 26 39 - - -
12/06:17pm - - - - - W 43 61 23 33 - - -
12/06:00pm - - - - - W 41 50 22 27 - - -
12/05:43pm - - - - - W 41 61 22 33 - - -
12/05:30pm - - - - - WSW 37 46 20 25 - - -
12/05:00pm - - - - - W 50 70 27 38 - - -
12/04:57pm - - - - - W 56 74 30 40 - - -
12/04:47pm - - - - - W 46 72 25 39 - - -
12/04:45pm - - - - - W 43 65 23 35 - - -
12/04:30pm - - - - - WSW 41 54 22 29 - - -
12/04:00pm - - - - - WSW 32 44 17 24 - - -
12/03:48pm - - - - - WSW 30 50 16 27 - - -
12/03:30pm - - - - - WSW 22 28 12 15 - - -
12/03:04pm - - - - - W 28 46 15 25 - - -
12/03:00pm - - - - - W 22 46 12 25 - - -
12/02:30pm - - - - - WSW 17 26 9 14 - - -
12/02:00pm - - - - - WSW 35 41 19 22 - - -
12/01:47pm - - - - - W 30 46 16 25 - - -
12/01:30pm - - - - - W 20 24 11 13 - - -
12/01:00pm - - - - - WSW 33 44 18 24 - - -
12/12:30pm - - - - - WSW 26 33 14 18 - - -
12/12:00pm - - - - - W 26 33 14 18 - - -
12/11:30am - - - - - WSW 35 46 19 25 - - -
12/11:00am - - - - - W 28 33 15 18 - - -
12/10:30am - - - - - W 28 33 15 18 - - -
12/10:00am - - - - - W 35 43 19 23 - - -
12/09:30am - - - - - WSW 35 48 19 26 - - -
12/09:12am - - - - - WSW 35 61 19 33 - - -
12/09:09am - - - - - WSW 32 50 17 27 - - -
12/09:00am - - - - - W 26 32 14 17 - - -
12/08:30am - - - - - SW 30 43 16 23 - - -
12/08:12am - - - - - WSW 35 57 19 31 - - -
12/08:00am - - - - - WSW 28 37 15 20 - - -
12/07:30am - - - - - WSW 30 41 16 22 - - -
12/07:00am - - - - - WSW 39 50 21 27 - - -
12/06:30am - - - - - WSW 35 48 19 26 - - -
12/06:00am - - - - - SW 32 50 17 27 - - -
12/05:30am - - - - - SW 28 39 15 21 - - -
12/05:00am - - - - - SW 33 44 18 24 - - -
12/04:37am - - - - - SW 35 54 19 29 - - -
12/04:30am - - - - - WSW 43 56 23 30 - - -
12/04:17am - - - - - WSW 37 56 20 30 - - -
12/04:00am - - - - - WSW 44 57 24 31 - - -
12/03:30am - - - - - WSW 43 56 23 30 - - -
12/03:21am - - - - - WSW 39 57 21 31 - - -
12/03:00am - - - - - WSW 35 50 19 27 - - -
12/02:30am - - - - - W 43 57 23 31 - - -
12/02:23am - - - - - W 28 48 15 26 - - -
12/02:22am - - - - - W 24 33 13 18 - - -
12/02:00am - - - - - NW 9 13 5 7 - - -
12/01:30am - - - - - NNW 22 28 12 15 - - -
12/01:00am - - - - - NNW 26 32 14 17 - - -
12/12:42am - - - - - NNW 35 54 19 29 - - -
12/12:39am - - - - - NNW 35 54 19 29 - - -
12/12:32am - - - - - WNW 32 50 17 27 - - -
12/12:30am - - - - - W 32 46 17 25 - - -
12/12:22am - - - - - NW 22 46 12 25 - - -
12/12:00am - - - - - N 20 26 11 14 - - -
 
Date/Time
EDT
Temp
°C
App
Temp
°C
Dew
Point
°C
Rel
Hum
%
Delta-T
°C
Wind Press
QNH
hPa
Press
MSL
hPa
Rain since
9am
mm
Dir  Spd
km/h
Gust
km/h
Spd
kts
Gust
kts
11/11:30pm - - - - - NNE 30 33 16 18 - - -
11/11:00pm - - - - - NNE 30 41 16 22 - - -
11/10:30pm - - - - - NNE 32 41 17 22 - - -
11/10:00pm - - - - - NNE 28 33 15 18 - - -
11/09:30pm - - - - - NNE 24 33 13 18 - - -
11/09:00pm - - - - - NE 20 32 11 17 - - -
11/08:30pm - - - - - NNE 15 20 8 11 - - -
11/08:00pm - - - - - NNE 11 17 6 9 - - -
11/07:30pm - - - - - WSW 6 9 3 5 - - -
11/07:00pm - - - - - N 9 17 5 9 - - -
11/06:30pm - - - - - N 7 11 4 6 - - -
11/06:00pm - - - - - WSW 6 9 3 5 - - -
11/05:30pm - - - - - WNW 7 13 4 7 - - -
11/05:00pm - - - - - W 9 11 5 6 - - -
11/04:30pm - - - - - NNW 4 9 2 5 - - -
11/04:00pm - - - - - N 17 20 9 11 - - -
11/03:30pm - - - - - N 15 19 8 10 - - -
11/03:00pm - - - - - N 17 20 9 11 - - -
11/02:30pm - - - - - N 19 24 10 13 - - -
11/02:00pm - - - - - N 20 26 11 14 - - -
11/01:30pm - - - - - N 20 24 11 13 - - -
11/01:00pm - - - - - N 24 28 13 15 - - -
11/12:30pm - - - - - N 24 28 13 15 - - -
11/12:00pm - - - - - N 28 30 15 16 - - -
11/11:30am - - - - - N 24 28 13 15 - - -
11/11:00am - - - - - N 20 26 11 14 - - -
11/10:30am - - - - - N 24 28 13 15 - - -
11/10:00am - - - - - N 19 24 10 13 - - -
11/09:30am - - - - - N 22 30 12 16 - - -
11/09:00am - - - - - N 19 24 10 13 - - -
11/08:30am - - - - - N 22 28 12 15 - - -
11/08:00am - - - - - N 20 26 11 14 - - -
11/07:30am - - - - - N 22 30 12 16 - - -
11/07:00am - - - - - CALM 0 0 0 0 - - -
11/06:30am - - - - - ENE 9 15 5 8 - - -
11/06:00am - - - - - E 9 11 5 6 - - -
11/05:30am - - - - - ESE 9 11 5 6 - - -
11/05:00am - - - - - NE 9 13 5 7 - - -
11/04:30am - - - - - NE 9 13 5 7 - - -
11/04:00am - - - - - N 13 17 7 9 - - -
11/03:30am - - - - - NNW 13 15 7 8 - - -
11/03:00am - - - - - NNE 11 15 6 8 - - -
11/02:30am - - - - - ESE 7 9 4 5 - - -
11/02:00am - - - - - CALM 0 0 0 0 - - -
11/01:30am - - - - - ESE 6 7 3 4 - - -
11/01:00am - - - - - CALM 0 7 0 4 - - -
11/12:30am - - - - - CALM 0 0 0 0 - - -
11/12:00am - - - - - CALM 0 0 0 0 - - -
 
Date/Time
EDT
Temp
°C
App
Temp
°C
Dew
Point
°C
Rel
Hum
%
Delta-T
°C
Wind Press
QNH
hPa
Press
MSL
hPa
Rain since
9am
mm
Dir  Spd
km/h
Gust
km/h
Spd
kts
Gust
kts
10/11:30pm - - - - - ENE 7 9 4 5 - - -
10/11:00pm - - - - - ESE 7 9 4 5 - - -
10/10:30pm - - - - - S 2 9 1 5 - - -
10/10:00pm - - - - - WSW 2 6 1 3 - - -
10/09:30pm - - - - - WSW 9 11 5 6 - - -
10/09:00pm - - - - - SSW 6 7 3 4 - - -
10/08:30pm - - - - - SW 6 7 3 4 - - -
10/08:00pm - - - - - WSW 9 13 5 7 - - -
10/07:30pm - - - - - SW 11 15 6 8 - - -
10/07:00pm - - - - - WSW 15 19 8 10 - - -
10/06:30pm - - - - - WSW 13 17 7 9 - - -
10/06:00pm - - - - - WSW 15 17 8 9 - - -
10/05:30pm - - - - - WSW 17 20 9 11 - - -
10/05:00pm - - - - - WSW 15 19 8 10 - - -
10/04:30pm - - - - - WSW 15 19 8 10 - - -
10/04:00pm - - - - - WSW 17 19 9 10 - - -
10/03:30pm - - - - - WSW 19 24 10 13 - - -
10/03:00pm - - - - - WSW 20 24 11 13 - - -
10/02:30pm - - - - - WSW 20 24 11 13 - - -
10/02:00pm - - - - - WSW 15 19 8 10 - - -
10/01:30pm - - - - - WSW 19 26 10 14 - - -
10/01:00pm - - - - - WNW 26 30 14 16 - - -
10/12:30pm - - - - - WNW 30 33 16 18 - - -
10/12:00pm - - - - - WNW 30 33 16 18 - - -
10/11:30am - - - - - WNW 28 33 15 18 - - -
10/11:00am - - - - - WNW 26 32 14 17 - - -
10/10:30am - - - - - W 28 33 15 18 - - -
10/10:00am - - - - - W 30 35 16 19 - - -
10/09:30am - - - - - W 32 35 17 19 - - -
10/09:00am - - - - - W 30 35 16 19 - - -
10/08:30am - - - - - W 32 37 17 20 - - -
10/08:00am - - - - - WNW 32 35 17 19 - - -
10/07:30am - - - - - WNW 33 39 18 21 - - -
10/07:00am - - - - - W 35 41 19 22 - - -
10/06:30am - - - - - WNW 35 41 19 22 - - -
10/06:00am - - - - - WNW 33 39 18 21 - - -
10/05:30am - - - - - W 33 37 18 20 - - -

Latest Capital City Observations: Canberra | Sydney | Melbourne | Brisbane | Adelaide | Perth | Hobart | Darwin

Other formats

Comma delimited format used in spreadsheet applications
http://www.bom.gov.au/fwo/IDV60901/IDV60901.94871.axf

JavaScript Object Notation format (JSON) in row-major order
http://www.bom.gov.au/fwo/IDV60901/IDV60901.94871.json

Data quality

Most of these data are generated automatically and are frequently updated. Quality checks on data are not normally performed. It is possible for incorrect values to appear. Refer to information at About Latest Weather Observations and please check the disclaimer before using these data.